PGUM/GUM METAR and TAF weather

Enter ICAO airport designator
Station Type Date Time Source
PGUM METAR 2021/04/12 02:31 UTC NOAA

PGUM 120231Z AUTO 09015G20KT 10SM SCT025 SCT030 SCT041 31/22 A2984 RMK AO2 T03110222


Station Type Date Time Source
PGUM Decoded METAR 2021/04/12 02:31 UTC NOAA

Agana, Guam International Airport, GU, United States (PGUM) 13-29N 144-48E
Apr 11, 2021 - 10:31 PM EDT / 2021.04.12 0231 UTC
Wind: from the E (090 degrees) at 17 MPH (15 KT) gusting to 23 MPH (20 KT):0
Visibility: 10 mile(s):0
Sky conditions: partly cloudy
Temperature: 88.0 F (31.1 C)
Heat index: 94.6 F (34.8 C):1
Dew Point: 72.0 F (22.2 C)
Relative Humidity: 59%
Pressure (altimeter): 29.84 in. Hg (1010 hPa)
ob: PGUM 120231Z AUTO 09015G20KT 10SM SCT025 SCT030 SCT041 31/22 A2984 RMK AO2 T03110222
cycle: 2

Station Type Date Time Source
PGUM TAF 2021/04/11 20:35 UTC NOAA

TAF
AMD PGUM 112020Z 1120/1224 08009KT P6SM FEW020 SCT040 SCT130
FM112300 08011G18KT P6SM FEW020 SCT050
FM120600 08009KT P6SM VCSH SCT020 SCT050

Example: see airport list